Airfield :
LOGIN :

Register | Disclaimer

   EN    FR    IT 

 










Legend :    VFR   Marginal VFR   IFR   Intensive IFR   Very Intensive IFR
Visi :
Ceiling :
>= 8 km
>= 3000ft
5 to 8 km
1000 to 3000 ft
1500m to 5 km
500 to 1000 ft
800 to 1500m
200 to 500 ft
< 800m
< 200 ft
Symbols :   Thunderstorms  Fog  Heavy snow  Heavy precipitations  Wind > 20 kt
SIGMETs :     Misc.  Thunderstorms  Icing  Turbulence  Mountain Waves  Volcanic Ashes







- Airport Elevation : 93 ft
- IATA code : XRY


LEJR - Jerez

CURRENT METAR :
  • 170500Z 08003KT CAVOK 11/10 Q1018

EXPIRED METARs :
  • 170430Z 08004KT CAVOK 12/11 Q1018
  • 170400Z 07002KT CAVOK 12/11 Q1018
  • 170330Z 06003KT CAVOK 12/11 Q1018
  • 170300Z AUTO 08003KT 9999 NCD 12/11 Q1018
  • 170230Z AUTO 07004KT 9999 NCD 12/11 Q1018

TAF TAF LEJR
Valid from the 17 at 00:00 until the 18 at 00:00 UTC


162300Z 1700/1724 VRB02KT CAVOK TX27/1713Z TN12/1705Z
BECMG 1710/1712 22010KT
BECMG 1719/1721 VRB02KT
No reported NOTAMs for that airfield.
1 SIGMET reported for the Madrid FIR (LECM) :
 
Severe turbulence
LECM SIGMET 3 VALID 170200/170600 LEVA
LECM MADRID UIR SEV TURB FCST WI N4322 W00441 - N4014 W00055 - N3848 W00123 - N4328 W00748 - N4322 W00441 FL280/350 MOV NE NC=



MET'MAP, your aeronautical weather chart ! - Copyright ORBIFLY December 2007 - Disclaimer

ORBIFLY MET'MAP TEAM :

Programming & Development : Alexandra Zaïnal
Concept & Development : Baudouin d'Aumeries
Co-Development & Prog : Marc-Olivier Méhu
Technical & hardware support : Manuel Goepfert

Contact : metmap@orbifly.com




SOURCES & CREDITS :

   NOAA